createdAt,value
2023-05-04T00:00:21.448Z,12.31
2023-05-04T00:02:48.895Z,12.28
2023-05-04T00:05:16.760Z,12.28
2023-05-04T00:07:44.221Z,12.25
2023-05-04T00:10:11.676Z,12.23
2023-05-04T00:12:39.567Z,12.20
2023-05-04T00:15:07.225Z,12.17
2023-05-04T00:17:34.897Z,12.14
2023-05-04T00:20:02.512Z,12.10
2023-05-04T00:22:30.288Z,12.04
2023-05-04T00:24:57.852Z,11.99
2023-05-04T00:27:25.196Z,11.95
2023-05-04T00:29:53.081Z,11.97
2023-05-04T00:32:21.150Z,11.99
2023-05-04T00:34:48.802Z,12.01
2023-05-04T00:37:16.363Z,12.03
2023-05-04T00:39:43.717Z,12.04
2023-05-04T00:42:11.092Z,12.06
2023-05-04T00:44:41.703Z,12.06
2023-05-04T00:47:09.651Z,12.05
2023-05-04T00:49:37.031Z,12.02
2023-05-04T00:52:05.303Z,12.01
2023-05-04T00:54:33.302Z,12.03
2023-05-04T00:57:00.628Z,12.07
2023-05-04T00:59:27.978Z,12.07
2023-05-04T01:01:55.542Z,12.03
2023-05-04T01:04:22.792Z,11.98
2023-05-04T01:06:50.362Z,11.96
2023-05-04T01:09:37.777Z,11.97
2023-05-04T01:12:06.397Z,11.95
2023-05-04T01:14:34.197Z,11.90
2023-05-04T01:17:02.912Z,11.78
2023-05-04T01:19:30.876Z,11.68
2023-05-04T01:21:58.743Z,11.60
2023-05-04T01:24:27.033Z,11.52
2023-05-04T01:27:04.717Z,11.46
2023-05-04T01:29:33.195Z,11.40
2023-05-04T01:32:00.653Z,11.34
2023-05-04T01:34:28.315Z,11.30
2023-05-04T01:36:55.876Z,11.27
2023-05-04T01:39:23.226Z,11.27
2023-05-04T01:41:50.813Z,11.28
2023-05-04T01:44:18.342Z,11.27
2023-05-04T01:46:46.052Z,11.22
2023-05-04T01:49:13.460Z,11.14
2023-05-04T01:51:40.917Z,11.06
2023-05-04T01:54:08.677Z,10.99
2023-05-04T01:56:36.132Z,10.95
2023-05-04T01:59:03.790Z,10.92
2023-05-04T02:01:31.297Z,10.89
2023-05-04T02:03:58.955Z,10.87
2023-05-04T02:06:26.964Z,10.86
2023-05-04T02:08:54.238Z,10.85
2023-05-04T02:11:21.906Z,10.88
2023-05-04T02:13:49.454Z,10.92
2023-05-04T02:16:17.254Z,10.95
2023-05-04T02:18:44.672Z,11.01
2023-05-04T02:21:13.068Z,11.08
2023-05-04T02:23:44.401Z,11.15
2023-05-04T02:26:11.863Z,11.18
2023-05-04T02:28:39.633Z,11.22
2023-05-04T02:31:06.991Z,11.23
2023-05-04T02:33:36.068Z,11.24
2023-05-04T02:36:03.736Z,11.22
2023-05-04T02:38:31.200Z,11.20
2023-05-04T02:40:58.852Z,11.18
2023-05-04T02:43:26.353Z,11.16
2023-05-04T02:45:54.422Z,11.17
2023-05-04T02:48:21.869Z,11.19
2023-05-04T02:50:49.401Z,11.19
2023-05-04T02:53:16.961Z,11.19
2023-05-04T02:55:44.313Z,11.22
2023-05-04T02:58:11.868Z,11.22
2023-05-04T03:00:39.537Z,11.17
2023-05-04T03:03:07.657Z,11.16
2023-05-04T03:05:35.375Z,11.16
2023-05-04T03:08:02.925Z,11.19
2023-05-04T03:10:30.499Z,11.21
2023-05-04T03:12:58.010Z,11.18
2023-05-04T03:15:25.676Z,11.18
2023-05-04T03:17:53.591Z,11.22
2023-05-04T03:20:21.758Z,11.29
2023-05-04T03:22:49.112Z,11.30
2023-05-04T03:25:16.968Z,11.28
2023-05-04T03:27:44.738Z,11.30
2023-05-04T03:30:12.796Z,11.33
2023-05-04T03:32:41.293Z,11.41
2023-05-04T03:35:09.658Z,11.42
2023-05-04T03:37:37.321Z,11.39
2023-05-04T03:40:05.248Z,11.43
2023-05-04T03:42:33.154Z,11.49
2023-05-04T03:45:03.217Z,11.54
2023-05-04T03:47:31.578Z,11.57
2023-05-04T03:49:59.194Z,11.58
2023-05-04T03:52:26.883Z,11.61
2023-05-04T03:54:54.433Z,11.64
2023-05-04T03:57:22.712Z,11.68
2023-05-04T03:59:51.128Z,11.75
2023-05-04T04:02:18.957Z,11.82
2023-05-04T04:04:46.747Z,11.84
2023-05-04T04:07:15.336Z,11.84
2023-05-04T04:09:42.771Z,11.87
2023-05-04T04:12:10.223Z,11.91
2023-05-04T04:14:37.978Z,11.97
2023-05-04T04:17:05.844Z,12.05
2023-05-04T04:19:33.261Z,12.15
2023-05-04T04:22:01.062Z,12.29
2023-05-04T04:24:28.533Z,12.44
2023-05-04T04:26:56.084Z,12.64
2023-05-04T04:29:23.749Z,12.80
2023-05-04T04:31:51.500Z,12.95
2023-05-04T04:34:19.267Z,13.08
2023-05-04T04:36:46.622Z,13.20
2023-05-04T04:39:14.628Z,13.34
2023-05-04T04:41:42.256Z,13.48
2023-05-04T04:44:09.736Z,13.62
2023-05-04T04:46:37.285Z,13.76
2023-05-04T04:49:05.033Z,13.92
2023-05-04T04:51:33.111Z,14.07
2023-05-04T04:54:00.878Z,14.21
2023-05-04T04:56:28.338Z,14.32
2023-05-04T04:58:55.983Z,14.42
2023-05-04T05:01:24.079Z,14.51
2023-05-04T05:03:51.522Z,14.58
2023-05-04T05:06:18.876Z,14.68
2023-05-04T05:08:46.632Z,14.76
2023-05-04T05:11:14.743Z,14.83
2023-05-04T05:13:43.486Z,14.92
2023-05-04T05:16:11.076Z,15.02
2023-05-04T05:18:38.607Z,15.14
2023-05-04T05:21:07.804Z,15.24
2023-05-04T05:23:35.993Z,15.33
2023-05-04T05:26:03.562Z,15.43
2023-05-04T05:28:32.531Z,15.54
2023-05-04T05:31:00.134Z,15.66
2023-05-04T05:33:28.377Z,15.78
2023-05-04T05:35:56.047Z,15.90
2023-05-04T05:38:23.603Z,15.98
2023-05-04T05:40:51.463Z,16.00
2023-05-04T05:43:18.941Z,16.02
2023-05-04T05:45:46.416Z,16.08
2023-05-04T05:48:14.127Z,16.13
2023-05-04T05:50:41.898Z,16.19
2023-05-04T05:53:09.250Z,16.26
2023-05-04T05:55:36.599Z,16.32
2023-05-04T05:58:06.119Z,16.36
2023-05-04T06:00:33.872Z,16.40
2023-05-04T06:03:01.684Z,16.47
2023-05-04T06:05:29.602Z,16.58
2023-05-04T06:07:57.073Z,16.69
2023-05-04T06:10:25.036Z,16.79
2023-05-04T06:12:52.731Z,16.89
2023-05-04T06:15:20.451Z,16.96
2023-05-04T06:17:49.120Z,17.06
2023-05-04T06:20:17.010Z,17.13
2023-05-04T06:22:44.663Z,17.20
2023-05-04T06:25:12.733Z,17.30
2023-05-04T06:27:40.465Z,17.40
2023-05-04T06:30:09.080Z,17.50
2023-05-04T06:32:37.388Z,17.60
2023-05-04T06:35:05.436Z,17.74
2023-05-04T06:37:32.798Z,17.90
2023-05-04T06:40:00.490Z,18.04
2023-05-04T06:42:31.992Z,18.15
2023-05-04T06:44:59.476Z,18.18
2023-05-04T06:47:27.874Z,18.20
2023-05-04T06:49:55.285Z,18.23
2023-05-04T06:52:22.894Z,18.24
2023-05-04T06:54:50.506Z,18.29
2023-05-04T06:57:18.289Z,18.29
2023-05-04T06:59:46.247Z,18.31
2023-05-04T07:02:13.900Z,18.35
2023-05-04T07:04:41.805Z,18.41
2023-05-04T07:07:09.440Z,18.50
2023-05-04T07:09:36.782Z,18.60
2023-05-04T07:12:05.060Z,18.75
2023-05-04T07:14:32.513Z,18.91
2023-05-04T07:17:00.481Z,19.09
2023-05-04T07:19:27.849Z,19.17
2023-05-04T07:21:56.306Z,19.25
2023-05-04T07:24:23.729Z,19.23
2023-05-04T07:26:51.317Z,19.24
2023-05-04T07:29:18.758Z,19.27
2023-05-04T07:31:46.370Z,19.38
2023-05-04T07:34:13.892Z,19.53
2023-05-04T07:36:43.263Z,19.72
2023-05-04T07:39:11.297Z,19.87
2023-05-04T07:41:38.732Z,20.02
2023-05-04T07:44:08.869Z,20.13
2023-05-04T07:46:36.551Z,20.18
2023-05-04T07:49:04.386Z,20.24
2023-05-04T07:51:31.945Z,20.19
2023-05-04T07:54:00.218Z,20.10
2023-05-04T07:56:27.775Z,20.12
2023-05-04T07:58:55.239Z,20.16
2023-05-04T08:01:22.584Z,20.21
2023-05-04T08:03:50.143Z,20.30
2023-05-04T08:06:17.806Z,20.29
2023-05-04T08:08:46.810Z,20.19
2023-05-04T08:11:20.748Z,20.08
2023-05-04T08:13:48.818Z,20.01
2023-05-04T08:16:16.550Z,20.00
2023-05-04T08:18:43.905Z,20.02
2023-05-04T08:21:11.251Z,20.01
2023-05-04T08:23:38.912Z,19.94
2023-05-04T08:26:06.575Z,19.91
2023-05-04T08:28:35.566Z,19.90
2023-05-04T08:31:04.154Z,19.92
2023-05-04T08:33:32.338Z,20.06
2023-05-04T08:36:00.302Z,20.29
2023-05-04T08:38:28.164Z,20.50
2023-05-04T08:40:55.523Z,20.63
2023-05-04T08:43:22.974Z,20.68
2023-05-04T08:45:51.282Z,20.72
2023-05-04T08:48:18.917Z,20.73
2023-05-04T08:50:46.404Z,20.64
2023-05-04T08:53:14.648Z,20.64
2023-05-04T08:55:42.515Z,20.63
2023-05-04T08:58:10.680Z,20.44
2023-05-04T09:00:39.118Z,20.29
2023-05-04T09:03:06.709Z,20.24
2023-05-04T09:05:34.493Z,20.26
2023-05-04T09:08:01.941Z,20.16
2023-05-04T09:10:29.870Z,20.15
2023-05-04T09:12:57.462Z,20.23
2023-05-04T09:15:24.941Z,20.31
2023-05-04T09:17:57.678Z,20.53
2023-05-04T09:20:28.552Z,20.89
2023-05-04T09:23:03.383Z,21.22
2023-05-04T09:25:31.326Z,21.55
2023-05-04T09:27:58.749Z,21.84
2023-05-04T09:30:26.469Z,22.06
2023-05-04T09:32:54.687Z,22.36
2023-05-04T09:35:33.639Z,22.66
2023-05-04T09:38:01.717Z,22.73
2023-05-04T09:40:40.332Z,22.57
2023-05-04T09:43:08.836Z,22.39
2023-05-04T09:45:40.388Z,22.13
2023-05-04T09:48:27.338Z,22.01
2023-05-04T09:50:55.396Z,22.16
2023-05-04T09:53:28.146Z,22.22
2023-05-04T09:56:15.067Z,22.27
2023-05-04T09:58:43.320Z,22.39
2023-05-04T10:01:10.945Z,22.57
2023-05-04T10:03:38.465Z,22.54
2023-05-04T10:06:06.223Z,22.42
2023-05-04T10:08:33.665Z,22.51
2023-05-04T10:11:01.333Z,22.58
2023-05-04T10:13:28.693Z,22.67
2023-05-04T10:16:15.960Z,22.87
2023-05-04T10:18:59.032Z,23.06
2023-05-04T10:21:29.359Z,23.20
2023-05-04T10:24:03.144Z,23.39
2023-05-04T10:26:37.786Z,23.55
2023-05-04T10:29:08.422Z,23.69
2023-05-04T10:31:39.821Z,23.71
2023-05-04T10:34:07.632Z,23.51
2023-05-04T10:36:38.698Z,23.31
2023-05-04T10:39:16.882Z,23.28
2023-05-04T10:41:56.009Z,23.26
2023-05-04T10:44:23.480Z,23.32
2023-05-04T10:46:59.732Z,23.44
2023-05-04T10:49:27.489Z,23.71
2023-05-04T10:52:16.357Z,23.95
2023-05-04T10:54:44.169Z,24.05
2023-05-04T10:57:12.786Z,23.97
2023-05-04T10:59:39.971Z,24.03
2023-05-04T11:02:07.825Z,23.96
2023-05-04T11:04:35.089Z,24.14
2023-05-04T11:07:03.087Z,24.69
2023-05-04T11:09:41.347Z,25.21
2023-05-04T11:12:10.870Z,25.67
2023-05-04T11:14:42.856Z,26.17
2023-05-04T11:17:26.548Z,26.71
2023-05-04T11:19:55.292Z,27.14
2023-05-04T11:22:22.180Z,27.74
2023-05-04T11:24:49.333Z,28.36
2023-05-04T11:27:26.479Z,28.76
2023-05-04T11:29:54.692Z,29.09
2023-05-04T11:32:23.172Z,29.52
2023-05-04T11:34:50.845Z,29.97
2023-05-04T11:37:18.696Z,30.56
2023-05-04T11:39:46.161Z,31.12
2023-05-04T11:42:13.625Z,31.71
2023-05-04T11:44:41.167Z,32.30
2023-05-04T11:47:09.341Z,32.72
2023-05-04T11:49:37.624Z,32.89
2023-05-04T11:52:07.272Z,32.91
2023-05-04T11:54:34.785Z,32.91
2023-05-04T11:57:03.985Z,33.00
2023-05-04T11:59:32.053Z,33.10
2023-05-04T12:01:59.608Z,33.16
2023-05-04T12:04:33.216Z,33.08
2023-05-04T12:07:01.796Z,32.97
2023-05-04T12:09:29.763Z,32.94
2023-05-04T12:11:57.346Z,32.90
2023-05-04T12:14:27.031Z,32.93
2023-05-04T12:16:55.120Z,32.85
2023-05-04T12:19:22.854Z,32.19
2023-05-04T12:21:53.613Z,31.20
2023-05-04T12:24:24.815Z,30.47
2023-05-04T12:26:52.628Z,29.90
2023-05-04T12:29:20.282Z,29.85
2023-05-04T12:31:47.846Z,29.91
2023-05-04T12:34:15.190Z,29.47
2023-05-04T12:36:44.788Z,28.98
2023-05-04T12:39:12.043Z,28.43
2023-05-04T12:41:40.523Z,27.81
2023-05-04T12:44:09.415Z,27.51
2023-05-04T12:46:37.704Z,27.71
2023-05-04T12:49:05.018Z,28.04
2023-05-04T12:51:32.806Z,28.27
2023-05-04T12:54:00.368Z,28.40
2023-05-04T12:56:27.723Z,28.44
2023-05-04T12:58:55.384Z,28.43
2023-05-04T13:01:22.959Z,28.53
2023-05-04T13:03:50.488Z,28.65
2023-05-04T13:06:17.960Z,28.72
2023-05-04T13:08:47.464Z,28.61
2023-05-04T13:11:19.320Z,28.35
2023-05-04T13:13:46.882Z,28.27
2023-05-04T13:16:14.155Z,28.20
2023-05-04T13:18:41.731Z,28.17
2023-05-04T13:21:09.563Z,28.19
2023-05-04T13:23:37.835Z,28.00
2023-05-04T13:26:05.602Z,27.63
2023-05-04T13:28:32.840Z,27.27
2023-05-04T13:31:01.274Z,27.33
2023-05-04T13:33:30.733Z,27.56
2023-05-04T13:35:59.012Z,27.74
2023-05-04T13:38:27.375Z,27.85
2023-05-04T13:40:55.408Z,27.97
2023-05-04T13:43:23.238Z,28.06
2023-05-04T13:45:50.938Z,28.03
2023-05-04T13:48:18.854Z,27.93
2023-05-04T13:50:46.414Z,27.74
2023-05-04T13:53:13.879Z,27.55
2023-05-04T13:55:42.159Z,27.39
2023-05-04T13:58:09.522Z,27.24
2023-05-04T14:00:37.143Z,27.16
2023-05-04T14:03:05.084Z,27.28
2023-05-04T14:05:32.558Z,27.68
2023-05-04T14:08:00.157Z,28.17
2023-05-04T14:10:47.780Z,28.77
2023-05-04T14:13:17.429Z,29.46
2023-05-04T14:15:45.349Z,29.99
2023-05-04T14:18:12.878Z,30.23
2023-05-04T14:20:40.978Z,30.16
2023-05-04T14:23:08.328Z,30.01
2023-05-04T14:25:36.102Z,29.91
2023-05-04T14:28:05.302Z,29.77
2023-05-04T14:30:32.956Z,29.41
2023-05-04T14:33:03.935Z,29.26
2023-05-04T14:35:34.726Z,29.29
2023-05-04T14:38:02.398Z,29.30
2023-05-04T14:40:30.455Z,29.35
2023-05-04T14:43:00.071Z,29.36
2023-05-04T14:45:27.628Z,29.22
2023-05-04T14:47:56.336Z,28.89
2023-05-04T14:50:24.007Z,28.48
2023-05-04T14:52:51.534Z,28.05
2023-05-04T14:55:19.111Z,27.59
2023-05-04T14:57:46.853Z,27.15
2023-05-04T15:00:15.341Z,26.73
2023-05-04T15:02:42.801Z,26.42
2023-05-04T15:05:12.871Z,26.15
2023-05-04T15:07:40.786Z,25.85
2023-05-04T15:10:10.818Z,25.53
2023-05-04T15:12:38.491Z,25.26
2023-05-04T15:15:06.344Z,25.08
2023-05-04T15:17:36.072Z,24.89
2023-05-04T15:20:05.759Z,24.65
2023-05-04T15:22:33.420Z,24.40
2023-05-04T15:25:02.164Z,24.21
2023-05-04T15:27:29.850Z,24.01
2023-05-04T15:29:57.216Z,23.86
2023-05-04T15:32:24.618Z,23.72
2023-05-04T15:35:04.716Z,23.60
2023-05-04T15:37:33.773Z,23.43
2023-05-04T15:40:02.513Z,23.28
2023-05-04T15:42:30.875Z,23.15
2023-05-04T15:45:03.072Z,23.05
2023-05-04T15:47:33.011Z,22.96
2023-05-04T15:50:00.822Z,22.84
2023-05-04T15:52:28.270Z,22.75
2023-05-04T15:54:57.275Z,22.68
2023-05-04T15:57:24.807Z,22.60
2023-05-04T15:59:53.144Z,22.45
2023-05-04T16:02:20.514Z,22.30
2023-05-04T16:04:48.135Z,22.17
2023-05-04T16:07:15.686Z,22.00
2023-05-04T16:09:43.578Z,21.82
2023-05-04T16:12:11.108Z,21.69
2023-05-04T16:14:38.688Z,21.54
2023-05-04T16:17:06.004Z,21.34
2023-05-04T16:19:33.677Z,21.21
2023-05-04T16:22:01.953Z,21.10
2023-05-04T16:24:29.617Z,21.02
2023-05-04T16:26:57.087Z,20.95
2023-05-04T16:29:24.836Z,20.86
2023-05-04T16:31:52.217Z,20.73
2023-05-04T16:34:19.869Z,20.64
2023-05-04T16:36:47.735Z,20.58
2023-05-04T16:39:16.619Z,20.54
2023-05-04T16:41:47.035Z,20.50
2023-05-04T16:44:15.381Z,20.45
2023-05-04T16:46:42.879Z,20.39
2023-05-04T16:49:14.350Z,20.34
2023-05-04T16:51:42.048Z,20.29
2023-05-04T16:54:09.543Z,20.24
2023-05-04T16:56:37.918Z,20.19
2023-05-04T16:59:05.505Z,20.13
2023-05-04T17:01:33.688Z,20.06
2023-05-04T17:04:02.138Z,20.00
2023-05-04T17:06:29.810Z,19.95
2023-05-04T17:08:57.870Z,19.87
2023-05-04T17:11:25.876Z,19.78
2023-05-04T17:13:53.598Z,19.67
2023-05-04T17:16:21.094Z,19.50
2023-05-04T17:18:49.024Z,19.33
2023-05-04T17:21:17.031Z,19.18
2023-05-04T17:23:44.771Z,19.06
2023-05-04T17:26:12.428Z,18.95
2023-05-04T17:28:40.094Z,18.85
2023-05-04T17:31:10.212Z,18.77
2023-05-04T17:33:37.457Z,18.69
2023-05-04T17:36:06.880Z,18.64
2023-05-04T17:38:34.091Z,18.59
2023-05-04T17:41:01.705Z,18.55
2023-05-04T17:43:29.645Z,18.53
2023-05-04T17:45:57.341Z,18.50
2023-05-04T17:48:27.790Z,18.48
2023-05-04T17:50:56.711Z,18.44
2023-05-04T17:53:24.283Z,18.38
2023-05-04T17:55:51.625Z,18.32
2023-05-04T17:58:19.500Z,18.24
2023-05-04T18:00:47.049Z,18.20
2023-05-04T18:03:14.709Z,18.15
2023-05-04T18:05:43.051Z,18.13
2023-05-04T18:08:10.433Z,18.14
2023-05-04T18:10:37.766Z,18.17
2023-05-04T18:13:05.815Z,18.16
2023-05-04T18:15:33.837Z,18.13
2023-05-04T18:18:01.705Z,18.10
2023-05-04T18:20:30.462Z,18.07
2023-05-04T18:22:58.265Z,18.06
2023-05-04T18:25:25.837Z,18.03
2023-05-04T18:27:56.341Z,18.00
2023-05-04T18:30:24.004Z,17.97
2023-05-04T18:32:51.579Z,17.94
2023-05-04T18:35:19.229Z,17.90
2023-05-04T18:37:46.751Z,17.88
2023-05-04T18:40:14.651Z,17.88
2023-05-04T18:42:42.218Z,17.90
2023-05-04T18:45:11.511Z,17.93
2023-05-04T18:47:38.898Z,17.95
2023-05-04T18:50:07.358Z,17.95
2023-05-04T18:52:35.210Z,17.93
2023-05-04T18:55:02.789Z,17.90
2023-05-04T18:57:30.637Z,17.89
2023-05-04T18:59:58.434Z,17.87
2023-05-04T19:02:26.958Z,17.87
2023-05-04T19:04:54.642Z,17.86
2023-05-04T19:07:23.558Z,17.86
2023-05-04T19:09:50.992Z,17.84
2023-05-04T19:12:21.187Z,17.83
2023-05-04T19:14:50.100Z,17.84
2023-05-04T19:17:18.743Z,17.86
2023-05-04T19:19:46.044Z,17.86
2023-05-04T19:22:15.767Z,17.83
2023-05-04T19:24:43.400Z,17.81
2023-05-04T19:27:10.869Z,17.80
2023-05-04T19:29:39.653Z,17.78
2023-05-04T19:32:19.832Z,17.76
2023-05-04T19:34:52.206Z,17.71
2023-05-04T19:37:19.840Z,17.70
2023-05-04T19:39:47.934Z,17.69
2023-05-04T19:42:15.265Z,17.68
2023-05-04T19:44:42.986Z,17.65
2023-05-04T19:47:10.488Z,17.62
2023-05-04T19:49:37.840Z,17.58
2023-05-04T19:52:07.244Z,17.54
2023-05-04T19:54:35.128Z,17.51
2023-05-04T19:57:04.218Z,17.50
2023-05-04T19:59:31.672Z,17.46
2023-05-04T20:01:59.565Z,17.43
2023-05-04T20:04:27.107Z,17.39
2023-05-04T20:06:54.313Z,17.36
2023-05-04T20:09:21.795Z,17.31
2023-05-04T20:11:49.561Z,17.28
2023-05-04T20:14:17.320Z,17.25
2023-05-04T20:16:45.177Z,17.23
2023-05-04T20:19:13.283Z,17.20
2023-05-04T20:21:40.918Z,17.17
2023-05-04T20:24:09.194Z,17.13
2023-05-04T20:26:36.751Z,17.10
2023-05-04T20:29:04.416Z,17.06
2023-05-04T20:31:31.915Z,17.03
2023-05-04T20:33:59.333Z,17.02
2023-05-04T20:36:27.612Z,17.03
2023-05-04T20:38:55.674Z,17.04
2023-05-04T20:41:24.153Z,17.05
2023-05-04T20:43:52.006Z,17.05
2023-05-04T20:46:19.507Z,17.06
2023-05-04T20:48:46.905Z,17.05
2023-05-04T20:51:15.360Z,17.02
2023-05-04T20:53:43.184Z,17.01
2023-05-04T20:56:10.505Z,17.01
2023-05-04T20:58:38.062Z,16.99
2023-05-04T21:01:06.139Z,16.96
2023-05-04T21:03:34.419Z,16.92
2023-05-04T21:06:02.098Z,16.88
2023-05-04T21:08:29.661Z,16.85
2023-05-04T21:10:57.001Z,16.84
2023-05-04T21:13:24.678Z,16.81
2023-05-04T21:15:52.452Z,16.79
2023-05-04T21:18:19.804Z,16.77
2023-05-04T21:20:47.563Z,16.74
2023-05-04T21:23:14.953Z,16.70
2023-05-04T21:25:42.883Z,16.69
2023-05-04T21:28:10.644Z,16.67
2023-05-04T21:30:40.869Z,16.66
2023-05-04T21:33:08.293Z,16.66
2023-05-04T21:35:36.098Z,16.66
2023-05-04T21:38:03.589Z,16.66
2023-05-04T21:40:31.000Z,16.65
2023-05-04T21:42:59.078Z,16.63
2023-05-04T21:45:26.940Z,16.61
2023-05-04T21:47:54.546Z,16.58
2023-05-04T21:50:22.167Z,16.52
2023-05-04T21:52:49.962Z,16.44
2023-05-04T21:55:17.990Z,16.34
2023-05-04T21:57:45.450Z,16.29
2023-05-04T22:00:17.840Z,16.27
2023-05-04T22:02:45.220Z,16.20
2023-05-04T22:05:13.041Z,16.13
2023-05-04T22:07:40.703Z,16.07
2023-05-04T22:10:08.746Z,15.99
2023-05-04T22:12:36.873Z,15.86
2023-05-04T22:15:05.022Z,15.77
2023-05-04T22:17:32.413Z,15.68
2023-05-04T22:19:59.827Z,15.61
2023-05-04T22:22:27.093Z,15.56
2023-05-04T22:24:54.432Z,15.51
2023-05-04T22:27:21.720Z,15.49
2023-05-04T22:29:49.451Z,15.47
2023-05-04T22:32:16.752Z,15.45
2023-05-04T22:34:44.311Z,15.42
2023-05-04T22:37:12.445Z,15.40
2023-05-04T22:39:40.096Z,15.41
2023-05-04T22:42:08.065Z,15.44
2023-05-04T22:44:35.732Z,15.45
2023-05-04T22:47:04.309Z,15.47
2023-05-04T22:49:31.776Z,15.50
2023-05-04T22:51:59.228Z,15.55
2023-05-04T22:54:27.110Z,15.58
2023-05-04T22:56:54.758Z,15.62
2023-05-04T22:59:22.110Z,15.66
2023-05-04T23:01:50.597Z,15.71
2023-05-04T23:04:18.045Z,15.71
2023-05-04T23:06:45.617Z,15.66
2023-05-04T23:09:14.608Z,15.60
2023-05-04T23:11:42.256Z,15.57
2023-05-04T23:14:10.435Z,15.53
2023-05-04T23:16:38.119Z,15.51
2023-05-04T23:19:05.654Z,15.53
2023-05-04T23:21:33.635Z,15.53
2023-05-04T23:24:01.088Z,15.53
2023-05-04T23:26:28.945Z,15.52
2023-05-04T23:28:56.419Z,15.54
2023-05-04T23:31:24.649Z,15.55
2023-05-04T23:33:52.333Z,15.50
2023-05-04T23:36:19.902Z,15.45
2023-05-04T23:38:47.459Z,15.39
2023-05-04T23:41:14.911Z,15.36
2023-05-04T23:43:42.476Z,15.35
2023-05-04T23:46:09.758Z,15.38
2023-05-04T23:48:37.489Z,15.41
2023-05-04T23:51:05.505Z,15.43
2023-05-04T23:53:37.111Z,15.47
2023-05-04T23:56:05.179Z,15.43
2023-05-04T23:58:33.413Z,15.34
